createdAt,value
2018-03-04T00:02:09.494Z,-6.00
2018-03-04T00:04:38.559Z,-6.10
2018-03-04T00:07:07.898Z,-6.20
2018-03-04T00:09:36.199Z,-6.20
2018-03-04T00:12:04.518Z,-6.20
2018-03-04T00:14:32.809Z,-6.20
2018-03-04T00:17:01.140Z,-6.20
2018-03-04T00:19:29.430Z,-6.20
2018-03-04T00:21:57.776Z,-6.20
2018-03-04T00:24:26.183Z,-6.20
2018-03-04T00:26:54.476Z,-6.30
2018-03-04T00:29:23.110Z,-6.30
2018-03-04T00:31:51.492Z,-6.30
2018-03-04T00:34:19.784Z,-6.40
2018-03-04T00:36:48.107Z,-6.50
2018-03-04T00:39:17.198Z,-6.50
2018-03-04T00:41:45.539Z,-6.60
2018-03-04T00:44:13.826Z,-6.50
2018-03-04T00:46:42.119Z,-6.50
2018-03-04T00:49:10.446Z,-6.50
2018-03-04T00:51:38.790Z,-6.60
2018-03-04T00:54:07.443Z,-6.60
2018-03-04T00:56:35.735Z,-6.60
2018-03-04T00:59:04.026Z,-6.70
2018-03-04T01:01:32.359Z,-6.80
2018-03-04T01:04:01.020Z,-6.90
2018-03-04T01:06:29.310Z,-7.00
2018-03-04T01:08:58.371Z,-6.90
2018-03-04T01:11:26.698Z,-6.90
2018-03-04T01:13:55.035Z,-7.10
2018-03-04T01:16:23.359Z,-7.10
2018-03-04T01:18:51.757Z,-7.20
2018-03-04T01:21:20.049Z,-7.30
2018-03-04T01:23:48.379Z,-7.20
2018-03-04T01:26:16.671Z,-7.30
2018-03-04T01:28:45.007Z,-7.20
2018-03-04T01:31:13.297Z,-7.10
2018-03-04T01:33:41.622Z,-7.00
2018-03-04T01:36:10.708Z,-7.10
2018-03-04T01:38:39.038Z,-7.10
2018-03-04T01:41:07.375Z,-7.10
2018-03-04T01:43:35.670Z,-7.10
2018-03-04T01:46:03.962Z,-7.40
2018-03-04T01:48:32.289Z,-7.40
2018-03-04T01:51:00.615Z,-7.50
2018-03-04T01:53:28.897Z,-7.60
2018-03-04T01:55:57.228Z,-7.70
2018-03-04T01:58:25.514Z,-7.60
2018-03-04T02:00:53.806Z,-7.50
2018-03-04T02:03:22.190Z,-7.40
2018-03-04T02:05:51.242Z,-7.10
2018-03-04T02:08:19.566Z,-7.10
2018-03-04T02:10:47.859Z,-7.20
2018-03-04T02:13:16.183Z,-7.30
2018-03-04T02:15:45.242Z,-7.50
2018-03-04T02:18:13.583Z,-7.50
2018-03-04T02:20:42.674Z,-7.60
2018-03-04T02:23:10.970Z,-7.60
2018-03-04T02:25:39.301Z,-7.60
2018-03-04T02:28:07.599Z,-7.60
2018-03-04T02:30:35.894Z,-7.70
2018-03-04T02:33:04.221Z,-7.60
2018-03-04T02:35:32.835Z,-7.60
2018-03-04T02:38:01.902Z,-7.90
2018-03-04T02:40:30.196Z,-7.90
2018-03-04T02:42:58.517Z,-7.90
2018-03-04T02:45:26.843Z,-7.90
2018-03-04T02:47:55.143Z,-8.00
2018-03-04T02:50:23.467Z,-8.10
2018-03-04T02:52:51.758Z,-8.20
2018-03-04T02:55:20.091Z,-8.30
2018-03-04T02:57:48.373Z,-8.40
2018-03-04T03:00:17.039Z,-8.40
2018-03-04T03:02:45.335Z,-8.50
2018-03-04T03:05:13.627Z,-8.50
2018-03-04T03:07:42.728Z,-8.40
2018-03-04T03:10:11.019Z,-8.40
2018-03-04T03:12:39.369Z,-8.30
2018-03-04T03:15:07.667Z,-8.20
2018-03-04T03:17:35.950Z,-8.00
2018-03-04T03:20:04.282Z,-8.20
2018-03-04T03:22:32.623Z,-8.40
2018-03-04T03:25:00.962Z,-8.50
2018-03-04T03:27:29.294Z,-8.40
2018-03-04T03:29:57.622Z,-8.30
2018-03-04T03:32:25.958Z,-8.10
2018-03-04T03:34:54.297Z,-8.10
2018-03-04T03:37:22.633Z,-8.00
2018-03-04T03:39:51.692Z,-8.20
2018-03-04T03:42:20.263Z,-8.20
2018-03-04T03:44:48.564Z,-8.40
2018-03-04T03:47:16.855Z,-8.40
2018-03-04T03:49:45.362Z,-8.30
2018-03-04T03:52:13.691Z,-8.20
2018-03-04T03:54:42.785Z,-8.10
2018-03-04T03:57:11.850Z,-8.40
2018-03-04T03:59:40.181Z,-8.40
2018-03-04T04:02:08.474Z,-8.70
2018-03-04T04:04:36.802Z,-8.80
2018-03-04T04:07:05.135Z,-8.90
2018-03-04T04:09:33.502Z,-8.90
2018-03-04T04:12:01.795Z,-8.90
2018-03-04T04:14:30.095Z,-8.90
2018-03-04T04:16:58.415Z,-9.00
2018-03-04T04:19:27.482Z,-9.00
2018-03-04T04:21:55.797Z,-9.00
2018-03-04T04:24:24.094Z,-8.90
2018-03-04T04:26:52.424Z,-8.90
2018-03-04T04:29:20.748Z,-8.90
2018-03-04T04:31:49.088Z,-9.10
2018-03-04T04:34:17.383Z,-9.10
2018-03-04T04:36:45.975Z,-9.00
2018-03-04T04:39:15.043Z,-8.90
2018-03-04T04:41:43.430Z,-8.90
2018-03-04T04:44:11.774Z,-9.00
2018-03-04T04:46:40.065Z,-9.00
2018-03-04T04:49:08.386Z,-9.00
2018-03-04T04:51:36.686Z,-9.20
2018-03-04T04:54:05.256Z,-9.10
2018-03-04T04:56:33.547Z,-9.10
2018-03-04T04:59:01.834Z,-9.20
2018-03-04T05:01:30.159Z,-9.10
2018-03-04T05:03:58.449Z,-9.20
2018-03-04T05:06:26.777Z,-9.30
2018-03-04T05:08:55.071Z,-9.50
2018-03-04T05:11:23.631Z,-9.50
2018-03-04T05:13:52.711Z,-9.40
2018-03-04T05:16:20.998Z,-9.40
2018-03-04T05:18:49.615Z,-9.50
2018-03-04T05:21:17.909Z,-9.70
2018-03-04T05:23:46.202Z,-9.70
2018-03-04T05:26:14.525Z,-9.70
2018-03-04T05:28:42.826Z,-9.60
2018-03-04T05:31:11.150Z,-9.50
2018-03-04T05:33:39.442Z,-9.40
2018-03-04T05:36:07.780Z,-9.50
2018-03-04T05:38:36.102Z,-9.50
2018-03-04T05:41:04.667Z,-9.30
2018-03-04T05:43:32.972Z,-9.20
2018-03-04T05:46:01.259Z,-9.20
2018-03-04T05:48:29.586Z,-9.20
2018-03-04T05:50:57.876Z,-9.30
2018-03-04T05:53:26.206Z,-9.20
2018-03-04T05:55:54.511Z,-9.30
2018-03-04T05:58:22.799Z,-9.30
2018-03-04T06:00:51.147Z,-9.30
2018-03-04T06:03:19.443Z,-9.30
2018-03-04T06:05:47.787Z,-9.20
2018-03-04T06:08:16.099Z,-9.30
2018-03-04T06:10:45.417Z,-9.50
2018-03-04T06:13:15.225Z,-9.60
2018-03-04T06:15:43.555Z,-9.70
2018-03-04T06:18:12.623Z,-9.60
2018-03-04T06:20:40.946Z,-9.60
2018-03-04T06:23:09.247Z,-9.50
2018-03-04T06:25:38.301Z,-9.40
2018-03-04T06:28:06.630Z,-9.40
2018-03-04T06:30:36.440Z,-9.40
2018-03-04T06:33:05.142Z,-9.40
2018-03-04T06:35:33.439Z,-9.40
2018-03-04T06:38:01.732Z,-9.50
2018-03-04T06:40:30.058Z,-9.50
2018-03-04T06:42:58.389Z,-9.20
2018-03-04T06:45:26.722Z,-8.80
2018-03-04T06:47:55.775Z,-8.70
2018-03-04T06:50:24.058Z,-8.70
2018-03-04T06:52:52.386Z,-8.70
2018-03-04T06:55:20.711Z,-8.60
2018-03-04T06:57:49.040Z,-8.50
2018-03-04T07:00:17.371Z,-8.40
2018-03-04T07:02:46.422Z,-8.40
2018-03-04T07:05:14.751Z,-8.40
2018-03-04T07:07:43.050Z,-8.20
2018-03-04T07:10:11.375Z,-8.10
2018-03-04T07:12:39.665Z,-7.80
2018-03-04T07:15:07.963Z,-7.70
2018-03-04T07:17:36.294Z,-7.40
2018-03-04T07:20:04.586Z,-7.00
2018-03-04T07:22:32.914Z,-7.00
2018-03-04T07:25:01.207Z,-6.80
2018-03-04T07:27:29.529Z,-6.80
2018-03-04T07:29:57.826Z,-6.40
2018-03-04T07:32:26.203Z,-6.10
2018-03-04T07:34:54.499Z,-5.70
2018-03-04T07:37:22.794Z,-5.20
2018-03-04T07:39:51.135Z,-5.00
2018-03-04T07:42:19.430Z,-4.70
2018-03-04T07:44:47.753Z,-4.80
2018-03-04T07:47:16.049Z,-4.70
2018-03-04T07:49:44.654Z,-4.50
2018-03-04T07:52:12.948Z,-4.30
2018-03-04T07:54:41.242Z,-4.50
2018-03-04T07:57:09.628Z,-4.50
2018-03-04T07:59:37.909Z,-4.20
2018-03-04T08:02:06.280Z,-4.00
2018-03-04T08:04:34.567Z,-3.80
2018-03-04T08:07:02.925Z,-3.70
2018-03-04T08:09:31.219Z,-3.40
2018-03-04T08:11:59.519Z,-3.20
2018-03-04T08:14:27.843Z,-3.40
2018-03-04T08:16:56.258Z,-3.30
2018-03-04T08:19:24.570Z,-2.90
2018-03-04T08:21:53.671Z,-3.20
2018-03-04T08:24:34.784Z,-3.00
2018-03-04T08:27:14.993Z,-3.00
2018-03-04T08:29:43.326Z,-2.90
2018-03-04T08:32:12.381Z,-3.00
2018-03-04T08:34:40.710Z,-3.10
2018-03-04T08:37:09.807Z,-2.60
2018-03-04T08:39:38.141Z,-2.60
2018-03-04T08:42:07.209Z,-2.40
2018-03-04T08:44:35.533Z,-2.40
2018-03-04T08:47:03.829Z,-2.40
2018-03-04T08:49:32.163Z,-2.40
2018-03-04T08:52:00.466Z,-2.10
2018-03-04T08:54:28.754Z,-2.20
2018-03-04T08:56:57.081Z,-2.00
2018-03-04T08:59:25.415Z,-1.90
2018-03-04T09:01:54.498Z,-1.70
2018-03-04T09:04:22.834Z,-1.70
2018-03-04T09:06:51.159Z,-2.00
2018-03-04T09:09:19.806Z,-2.10
2018-03-04T09:11:48.102Z,-1.90
2018-03-04T09:14:16.402Z,-1.70
2018-03-04T09:16:45.498Z,-1.40
2018-03-04T09:19:13.786Z,-1.50
2018-03-04T09:21:42.090Z,-1.40
2018-03-04T09:24:11.186Z,-1.30
2018-03-04T09:26:40.245Z,-1.20
2018-03-04T09:29:08.885Z,-1.30
2018-03-04T09:31:37.311Z,-1.10
2018-03-04T09:34:05.658Z,-1.00
2018-03-04T09:36:33.948Z,-0.90
2018-03-04T09:39:02.258Z,-0.80
2018-03-04T09:41:30.590Z,-0.80
2018-03-04T09:43:58.899Z,-0.50
2018-03-04T09:46:27.206Z,-0.40
2018-03-04T09:48:55.705Z,-0.30
2018-03-04T09:51:24.002Z,-0.60
2018-03-04T09:53:52.347Z,-0.90
2018-03-04T09:56:20.678Z,-0.60
2018-03-04T09:58:48.982Z,-0.40
2018-03-04T10:01:18.078Z,-0.50
2018-03-04T10:03:47.290Z,-0.30
2018-03-04T10:06:16.418Z,-0.30
2018-03-04T10:08:45.515Z,-0.80
2018-03-04T10:11:13.810Z,-0.80
2018-03-04T10:13:42.906Z,-0.70
2018-03-04T10:16:11.300Z,-0.70
2018-03-04T10:18:40.701Z,-0.10
2018-03-04T10:21:09.003Z,-0.10
2018-03-04T10:23:37.379Z,-0.10
2018-03-04T10:26:05.702Z,0.00
2018-03-04T10:28:34.768Z,0.40
2018-03-04T10:31:03.087Z,0.40
2018-03-04T10:33:32.198Z,0.50
2018-03-04T10:36:01.383Z,0.60
2018-03-04T10:38:29.698Z,0.60
2018-03-04T10:40:58.805Z,1.20
2018-03-04T10:43:27.105Z,1.20
2018-03-04T10:45:56.158Z,1.00
2018-03-04T10:48:24.491Z,1.00
2018-03-04T10:50:53.555Z,1.30
2018-03-04T10:53:21.930Z,1.20
2018-03-04T10:55:50.261Z,1.30
2018-03-04T10:58:20.063Z,0.90
2018-03-04T11:00:58.326Z,0.90
2018-03-04T11:03:27.395Z,0.90
2018-03-04T11:05:55.718Z,0.90
2018-03-04T11:08:24.006Z,0.60
2018-03-04T11:10:52.334Z,0.60
2018-03-04T11:13:20.653Z,1.00
2018-03-04T11:15:48.982Z,0.80
2018-03-04T11:18:18.078Z,1.10
2018-03-04T11:20:46.415Z,1.10
2018-03-04T11:23:14.763Z,1.60
2018-03-04T11:25:43.106Z,1.60
2018-03-04T11:28:11.765Z,1.60
2018-03-04T11:30:40.834Z,1.80
2018-03-04T11:33:09.451Z,1.80
2018-03-04T11:35:37.752Z,1.50
2018-03-04T11:38:06.814Z,2.10
2018-03-04T11:40:35.138Z,2.10
2018-03-04T11:43:04.194Z,2.30
2018-03-04T11:45:32.490Z,2.30
2018-03-04T11:48:01.138Z,2.40
2018-03-04T11:50:29.427Z,2.70
2018-03-04T11:52:58.486Z,2.50
2018-03-04T11:55:26.814Z,2.50
2018-03-04T11:57:55.410Z,2.20
2018-03-04T12:00:23.704Z,2.30
2018-03-04T12:02:53.494Z,2.60
2018-03-04T12:05:22.789Z,2.60
2018-03-04T12:07:51.081Z,2.80
2018-03-04T12:10:19.410Z,3.00
2018-03-04T12:12:47.738Z,3.20
2018-03-04T12:15:16.809Z,3.20
2018-03-04T12:17:45.087Z,3.20
2018-03-04T12:20:13.418Z,3.20
2018-03-04T12:22:42.475Z,3.10
2018-03-04T12:25:10.810Z,3.10
2018-03-04T12:27:39.865Z,2.80
2018-03-04T12:30:08.153Z,2.80
2018-03-04T12:32:36.494Z,3.00
2018-03-04T12:35:05.590Z,3.30
2018-03-04T12:37:33.926Z,3.20
2018-03-04T12:40:02.223Z,3.30
2018-03-04T12:42:30.511Z,3.40
2018-03-04T12:44:58.837Z,3.10
2018-03-04T12:47:27.908Z,3.40
2018-03-04T12:49:56.250Z,3.40
2018-03-04T12:52:24.577Z,3.40
2018-03-04T12:54:52.875Z,3.40
2018-03-04T12:57:21.307Z,3.50
2018-03-04T12:59:49.614Z,3.60
2018-03-04T13:02:17.986Z,3.70
2018-03-04T13:04:46.277Z,3.70
2018-03-04T13:07:14.878Z,3.20
2018-03-04T13:09:43.162Z,3.30
2018-03-04T13:12:11.448Z,3.60
2018-03-04T13:14:39.812Z,3.80
2018-03-04T13:17:08.107Z,3.50
2018-03-04T13:19:36.402Z,3.30
2018-03-04T13:22:04.730Z,2.90
2018-03-04T13:24:33.111Z,3.00
2018-03-04T13:27:01.500Z,3.20
2018-03-04T13:29:29.782Z,3.50
2018-03-04T13:31:59.716Z,3.60
2018-03-04T13:34:28.003Z,3.60
2018-03-04T13:36:56.394Z,3.70
2018-03-04T13:39:24.683Z,3.50
2018-03-04T13:41:53.011Z,3.40
2018-03-04T13:44:21.305Z,3.40
2018-03-04T13:46:49.586Z,3.40
2018-03-04T13:49:17.917Z,3.40
2018-03-04T13:51:46.207Z,3.30
2018-03-04T13:54:14.504Z,3.20
2018-03-04T13:56:43.110Z,3.10
2018-03-04T13:59:11.405Z,3.30
2018-03-04T14:01:39.797Z,3.50
2018-03-04T14:04:08.118Z,3.50
2018-03-04T14:06:37.206Z,3.30
2018-03-04T14:09:05.526Z,3.30
2018-03-04T14:11:33.814Z,3.20
2018-03-04T14:14:02.102Z,3.30
2018-03-04T14:16:30.813Z,3.20
2018-03-04T14:18:59.054Z,3.30
2018-03-04T14:21:28.115Z,3.40
2018-03-04T14:23:56.443Z,3.40
2018-03-04T14:26:24.875Z,3.30
2018-03-04T14:28:53.162Z,3.30
2018-03-04T14:31:21.495Z,3.30
2018-03-04T14:33:49.902Z,3.40
2018-03-04T14:36:18.385Z,3.30
2018-03-04T14:38:46.727Z,3.10
2018-03-04T14:41:15.018Z,3.20
2018-03-04T14:43:43.348Z,3.20
2018-03-04T14:46:11.668Z,3.20
2018-03-04T14:48:40.000Z,3.20
2018-03-04T14:51:08.282Z,3.30
2018-03-04T14:53:37.562Z,3.20
2018-03-04T14:56:07.010Z,3.10
2018-03-04T14:58:35.293Z,3.10
2018-03-04T15:01:03.595Z,3.10
2018-03-04T15:03:31.910Z,3.20
2018-03-04T15:06:00.197Z,3.20
2018-03-04T15:08:28.514Z,3.10
2018-03-04T15:10:56.806Z,3.20
2018-03-04T15:13:25.127Z,3.30
2018-03-04T15:15:53.428Z,3.30
2018-03-04T15:18:21.742Z,3.30
2018-03-04T15:20:50.087Z,3.20
2018-03-04T15:23:19.166Z,3.10
2018-03-04T15:25:47.490Z,3.10
2018-03-04T15:28:17.519Z,2.90
2018-03-04T15:30:45.841Z,2.90
2018-03-04T15:33:14.180Z,2.70
2018-03-04T15:35:43.241Z,2.60
2018-03-04T15:38:11.533Z,2.60
2018-03-04T15:40:39.866Z,2.60
2018-03-04T15:43:08.975Z,2.70
2018-03-04T15:45:37.306Z,2.70
2018-03-04T15:48:05.603Z,2.60
2018-03-04T15:50:34.023Z,2.60
2018-03-04T15:53:02.423Z,2.60
2018-03-04T15:55:30.693Z,2.70
2018-03-04T15:57:59.006Z,2.80
2018-03-04T16:00:28.114Z,2.60
2018-03-04T16:02:56.404Z,2.60
2018-03-04T16:05:24.766Z,2.70
2018-03-04T16:07:53.381Z,2.80
2018-03-04T16:10:21.666Z,2.90
2018-03-04T16:12:49.975Z,2.90
2018-03-04T16:15:18.755Z,3.10
2018-03-04T16:17:47.034Z,2.80
2018-03-04T16:20:15.367Z,2.60
2018-03-04T16:22:44.417Z,2.20
2018-03-04T16:25:12.711Z,2.20
2018-03-04T16:27:41.037Z,2.10
2018-03-04T16:30:09.327Z,2.20
2018-03-04T16:32:38.395Z,2.30
2018-03-04T16:35:06.733Z,2.30
2018-03-04T16:37:35.010Z,2.40
2018-03-04T16:40:03.344Z,2.20
2018-03-04T16:42:31.696Z,2.20
2018-03-04T16:44:59.966Z,2.10
2018-03-04T16:47:28.307Z,2.10
2018-03-04T16:49:56.710Z,2.10
2018-03-04T16:52:25.021Z,2.00
2018-03-04T16:54:53.324Z,1.90
2018-03-04T16:57:21.653Z,1.80
2018-03-04T16:59:50.714Z,1.70
2018-03-04T17:02:19.043Z,1.60
2018-03-04T17:04:48.098Z,1.40
2018-03-04T17:07:16.441Z,1.30
2018-03-04T17:09:44.903Z,1.40
2018-03-04T17:12:13.226Z,1.40
2018-03-04T17:14:42.291Z,1.30
2018-03-04T17:17:10.618Z,1.30
2018-03-04T17:19:39.714Z,1.10
2018-03-04T17:22:08.014Z,1.00
2018-03-04T17:24:37.140Z,1.00
2018-03-04T17:27:06.199Z,1.00
2018-03-04T17:29:34.513Z,1.00
2018-03-04T17:32:03.198Z,1.00
2018-03-04T17:34:31.494Z,0.90
2018-03-04T17:36:59.843Z,0.80
2018-03-04T17:39:28.191Z,0.80
2018-03-04T17:41:57.374Z,0.90
2018-03-04T17:44:25.662Z,0.90
2018-03-04T17:46:54.058Z,0.90
2018-03-04T17:49:22.363Z,0.80
2018-03-04T17:51:50.668Z,0.70
2018-03-04T17:54:19.767Z,0.50
2018-03-04T17:56:48.832Z,0.40
2018-03-04T17:59:17.130Z,0.40
2018-03-04T18:01:45.462Z,0.30
2018-03-04T18:04:14.528Z,0.30
2018-03-04T18:06:42.819Z,0.20
2018-03-04T18:09:11.142Z,0.40
2018-03-04T18:11:40.211Z,0.50
2018-03-04T18:14:08.933Z,0.50
2018-03-04T18:16:37.226Z,0.50
2018-03-04T18:19:05.534Z,0.40
2018-03-04T18:21:34.623Z,0.20
2018-03-04T18:24:02.969Z,0.20
2018-03-04T18:26:31.307Z,0.30
2018-03-04T18:28:59.643Z,0.30
2018-03-04T18:31:27.971Z,0.30
2018-03-04T18:33:56.490Z,0.20
2018-03-04T18:36:25.551Z,0.10
2018-03-04T18:38:53.847Z,0.10
2018-03-04T18:41:22.176Z,0.10
2018-03-04T18:43:51.338Z,0.20
2018-03-04T18:46:20.342Z,0.30
2018-03-04T18:48:48.694Z,0.30
2018-03-04T18:51:17.763Z,0.20
2018-03-04T18:53:46.060Z,0.20
2018-03-04T18:56:15.171Z,0.10
2018-03-04T18:58:43.558Z,0.10
2018-03-04T19:01:11.855Z,0.10
2018-03-04T19:03:41.217Z,0.00
2018-03-04T19:06:09.522Z,0.00
2018-03-04T19:08:38.146Z,0.00
2018-03-04T19:11:06.534Z,0.00
2018-03-04T19:13:36.340Z,0.00
2018-03-04T19:16:04.666Z,0.00
2018-03-04T19:18:33.735Z,-0.10
2018-03-04T19:21:02.037Z,-0.10
2018-03-04T19:23:30.362Z,0.00
2018-03-04T19:25:59.426Z,-0.10
2018-03-04T19:28:27.766Z,-0.10
2018-03-04T19:30:56.218Z,-0.20
2018-03-04T19:33:24.502Z,-0.10
2018-03-04T19:35:52.822Z,-0.10
2018-03-04T19:38:21.886Z,-0.30
2018-03-04T19:40:50.225Z,-0.30
2018-03-04T19:43:19.291Z,-0.50
2018-03-04T19:45:47.631Z,-0.50
2018-03-04T19:48:16.725Z,-0.60
2018-03-04T19:50:45.795Z,-0.50
2018-03-04T19:53:14.090Z,-0.50
2018-03-04T19:55:42.418Z,-0.70
2018-03-04T19:58:11.496Z,-0.80
2018-03-04T20:00:39.822Z,-0.90
2018-03-04T20:03:08.882Z,-0.70
2018-03-04T20:05:37.213Z,-0.70
2018-03-04T20:08:06.278Z,-0.80
2018-03-04T20:10:34.626Z,-0.80
2018-03-04T20:13:03.703Z,-0.70
2018-03-04T20:15:32.785Z,-0.70
2018-03-04T20:18:01.118Z,-0.70
2018-03-04T20:20:30.205Z,-1.00
2018-03-04T20:22:58.535Z,-1.00
2018-03-04T20:25:26.857Z,-1.00
2018-03-04T20:27:55.151Z,-1.00
2018-03-04T20:30:23.450Z,-0.90
2018-03-04T20:32:51.787Z,-0.90
2018-03-04T20:35:20.847Z,-1.00
2018-03-04T20:37:49.466Z,-1.00
2018-03-04T20:40:17.753Z,-1.10
2018-03-04T20:42:46.822Z,-1.00
2018-03-04T20:45:15.167Z,-1.00
2018-03-04T20:47:44.235Z,-0.80
2018-03-04T20:50:12.649Z,-0.80
2018-03-04T20:52:41.758Z,-0.90
2018-03-04T20:55:10.087Z,-0.90
2018-03-04T20:57:38.391Z,-0.90
2018-03-04T21:02:42.155Z,-0.90
2018-03-04T21:05:10.504Z,-0.90
2018-03-04T21:07:38.846Z,-0.90
2018-03-04T21:10:07.155Z,-0.90
2018-03-04T21:12:35.550Z,-0.90
2018-03-04T21:15:03.920Z,-0.90
2018-03-04T21:17:32.194Z,-0.90
2018-03-04T21:20:00.501Z,-0.90
2018-03-04T21:22:28.830Z,-1.00
2018-03-04T21:24:57.163Z,-1.00
2018-03-04T21:27:25.499Z,-1.00
2018-03-04T21:29:54.587Z,-1.20
2018-03-04T21:32:22.923Z,-1.20
2018-03-04T21:34:51.226Z,-1.30
2018-03-04T21:37:19.554Z,-1.40
2018-03-04T21:39:47.854Z,-1.40
2018-03-04T21:42:16.962Z,-1.30
2018-03-04T21:44:46.031Z,-1.30
2018-03-04T21:47:14.368Z,-1.30
2018-03-04T21:49:43.436Z,-1.20
2018-03-04T21:52:11.769Z,-1.20
2018-03-04T21:54:40.830Z,-1.20
2018-03-04T21:57:09.161Z,-1.20
2018-03-04T21:59:38.267Z,-1.40
2018-03-04T22:02:07.339Z,-1.50
2018-03-04T22:04:35.669Z,-1.50
2018-03-04T22:07:04.783Z,-1.50
2018-03-04T22:09:34.135Z,-1.60
2018-03-04T22:12:02.431Z,-1.70
2018-03-04T22:14:30.734Z,-1.70
2018-03-04T22:16:59.068Z,-1.80
2018-03-04T22:19:28.142Z,-1.90
2018-03-04T22:21:56.478Z,-1.90
2018-03-04T22:24:24.814Z,-1.80
2018-03-04T22:26:53.113Z,-1.80
2018-03-04T22:29:22.922Z,-1.60
2018-03-04T22:31:51.250Z,-1.60
2018-03-04T22:34:20.350Z,-1.70
2018-03-04T22:36:48.646Z,-1.70
2018-03-04T22:39:16.997Z,-1.80
2018-03-04T22:41:45.300Z,-1.90
2018-03-04T22:44:13.705Z,-1.80
2018-03-04T22:46:42.039Z,-1.60
2018-03-04T22:49:10.331Z,-1.60
2018-03-04T22:51:39.087Z,-1.70
2018-03-04T22:54:07.390Z,-1.80
2018-03-04T22:56:36.446Z,-1.90
2018-03-04T22:59:04.774Z,-1.90
2018-03-04T23:01:33.149Z,-2.00
2018-03-04T23:04:01.498Z,-2.00
2018-03-04T23:06:29.835Z,-2.00
2018-03-04T23:08:58.171Z,-1.90
2018-03-04T23:11:26.476Z,-2.00
2018-03-04T23:13:54.803Z,-2.00
2018-03-04T23:16:23.129Z,-2.20
2018-03-04T23:18:53.424Z,-2.40
2018-03-04T23:21:21.753Z,-2.60
2018-03-04T23:23:50.814Z,-2.60
2018-03-04T23:26:19.117Z,-2.60
2018-03-04T23:28:47.451Z,-2.50
2018-03-04T23:31:15.749Z,-2.40
2018-03-04T23:33:44.050Z,-2.30
2018-03-04T23:36:12.392Z,-2.30
2018-03-04T23:38:41.490Z,-2.20
2018-03-04T23:41:09.799Z,-2.30
2018-03-04T23:43:38.893Z,-2.30
2018-03-04T23:46:07.195Z,-2.30
2018-03-04T23:48:36.257Z,-2.50
2018-03-04T23:51:04.592Z,-2.50
2018-03-04T23:53:33.654Z,-2.50
2018-03-04T23:56:01.966Z,-2.60
2018-03-04T23:58:30.293Z,-2.50
